Time;durP1;ratioP1;P1;durP2;ratioP2;P2;SDS_P1;SDS_P2;PMS_P1;PMS_P2;Temp;Humidity;BMP_temperature;BMP_pressure;BME280_temperature;BME280_humidity;BME280_pressure;Samples;Min_cycle;Max_cycle;Signal;HPM_P1;HPM_P2
2023/07/15 00:00:13;;;;;;;78.78;60.72;;;;;;;26.42;41.27;100013.28;5112431;28;20047;-68
2023/07/15 00:02:44;;;;;;;9.73;2.65;;;;;;;26.33;41.62;100004.63;5115635;27;20051;-68
2023/07/15 00:05:37;;;;;;;9.10;1.70;;;;;;;26.33;41.59;100012.28;5102503;28;20056;-67
2023/07/15 00:08:08;;;;;;;6.72;1.73;;;;;;;26.24;41.82;100003.63;5101605;28;20058;-63
2023/07/15 00:10:37;;;;;;;4.50;1.35;;;;;;;26.30;41.85;99999.84;5093863;28;20059;-63
2023/07/15 00:13:17;;;;;;;4.95;1.40;;;;;;;26.16;42.43;99988.88;5087509;28;20050;-62
2023/07/15 00:15:47;;;;;;;5.18;1.70;;;;;;;26.60;41.34;99993.91;5087784;28;20052;-63
2023/07/15 00:18:15;;;;;;;;;;;;;;;26.21;42.23;99998.84;5107896;28;20051;-63
2023/07/15 00:20:44;;;;;;;7.63;2.03;;;;;;;26.18;42.38;100002.53;5100917;28;19920;-62
2023/07/15 00:23:19;;;;;;;5.68;1.80;;;;;;;26.14;42.86;99996.97;5111619;28;20043;-62
2023/07/15 00:25:47;;;;;;;6.88;1.50;;;;;;;26.16;42.63;100005.00;5110483;28;20067;-62
2023/07/15 00:28:14;;;;;;;6.60;1.70;;;;;;;26.14;42.60;100013.09;5084234;28;20040;-63
2023/07/15 00:30:43;;;;;;;5.88;1.70;;;;;;;25.95;43.46;100017.50;5090682;28;20047;-62
2023/07/15 00:33:13;;;;;;;6.00;1.48;;;;;;;25.81;43.72;100014.97;5092710;28;20043;-62
2023/07/15 00:35:42;;;;;;;9.70;4.93;;;;;;;25.79;44.15;100017.41;5092756;28;20058;-61
2023/07/15 00:38:10;;;;;;;4.60;1.95;;;;;;;25.75;44.79;100018.72;5110746;28;20059;-62
2023/07/15 00:40:40;;;;;;;5.47;1.63;;;;;;;25.88;44.47;100014.81;5094444;28;20098;-62
2023/07/15 00:43:45;;;;;;;5.45;1.40;;;;;;;25.69;45.30;100020.44;5097494;28;20056;-68
2023/07/15 00:46:22;;;;;;;3.20;1.50;;;;;;;25.68;45.58;100013.22;5111150;28;20074;-68
2023/07/15 00:49:12;;;;;;;5.03;1.50;;;;;;;25.61;46.21;100024.66;5109248;28;20051;-67
2023/07/15 00:51:42;;;;;;;3.13;1.35;;;;;;;25.80;46.07;100019.03;5108489;28;20044;-68
2023/07/15 00:54:11;;;;;;;9.98;1.92;;;;;;;25.54;46.96;100034.81;5089468;28;20051;-67
2023/07/15 00:56:40;;;;;;;9.63;2.70;;;;;;;25.51;47.25;100037.69;5078256;28;20465;-68
2023/07/15 00:59:09;;;;;;;5.13;1.40;;;;;;;25.41;47.83;100030.25;5106700;28;20544;-68
2023/07/15 01:01:37;;;;;;;7.90;1.95;;;;;;;25.35;48.74;100035.53;5113615;27;20035;-63
2023/07/15 01:04:05;;;;;;;4.07;1.40;;;;;;;25.44;48.57;100023.72;5102112;28;20039;-63
2023/07/15 01:06:35;;;;;;;4.68;1.52;;;;;;;25.40;49.23;100017.38;5110314;28;20054;-63
2023/07/15 01:09:09;;;;;;;3.60;1.42;;;;;;;25.28;50.27;100029.25;5102806;27;20487;-64
2023/07/15 01:11:37;;;;;;;3.58;1.30;;;;;;;25.18;50.98;100031.00;5072024;28;20043;-63
2023/07/15 01:14:05;;;;;;;7.57;1.52;;;;;;;25.31;51.02;100032.00;5069623;28;20039;-63
2023/07/15 01:16:33;;;;;;;5.47;1.20;;;;;;;25.15;52.38;100031.06;5105857;28;20052;-63
2023/07/15 01:19:02;;;;;;;9.25;1.48;;;;;;;24.99;52.91;100017.66;5083183;28;20036;-63
2023/07/15 01:21:34;;;;;;;2.90;1.40;;;;;;;25.13;53.87;100019.41;5102679;28;20052;-63
2023/07/15 01:24:02;;;;;;;7.47;1.30;;;;;;;25.08;53.91;100032.00;5085578;28;20059;-63
2023/07/15 01:26:31;;;;;;;5.47;1.10;;;;;;;25.06;54.08;100028.00;5102548;28;20051;-63
2023/07/15 01:28:58;;;;;;;3.80;1.20;;;;;;;25.03;54.55;100028.84;5110951;28;20518;-62
2023/07/15 01:31:30;;;;;;;4.45;1.33;;;;;;;25.03;54.25;100026.03;5086982;28;20047;-63
2023/07/15 01:33:57;;;;;;;3.50;1.10;;;;;;;24.94;54.75;100028.59;5101432;28;20052;-62
2023/07/15 01:36:26;;;;;;;6.72;1.45;;;;;;;25.13;54.33;100017.41;5105140;28;20047;-62
2023/07/15 01:38:54;;;;;;;3.13;1.20;;;;;;;24.92;55.22;100019.78;5070133;28;20518;-67
2023/07/15 01:41:22;;;;;;;3.25;1.20;;;;;;;25.00;54.85;100010.78;5086970;28;20036;-67
2023/07/15 01:43:49;;;;;;;3.03;1.10;;;;;;;25.00;54.97;100002.31;5086872;28;20040;-68
2023/07/15 01:46:17;;;;;;;4.70;1.30;;;;;;;24.95;55.15;100010.47;5089931;28;20055;-66
2023/07/15 01:48:48;;;;;;;3.75;1.38;;;;;;;25.25;54.78;100010.34;5068714;28;20036;-67
2023/07/15 01:51:15;;;;;;;5.18;1.33;;;;;;;25.15;55.02;99998.06;5083890;28;20048;-62
2023/07/15 01:53:43;;;;;;;4.03;1.42;;;;;;;24.97;55.84;99994.72;5078265;28;20059;-63
2023/07/15 01:56:10;;;;;;;2.53;0.90;;;;;;;24.92;56.34;99985.97;5049358;28;20053;-68
2023/07/15 01:58:39;;;;;;;7.32;1.40;;;;;;;24.82;56.97;99984.94;5054746;28;20054;-67
2023/07/15 02:01:06;;;;;;;4.70;1.10;;;;;;;24.78;57.34;99981.34;5074018;28;20044;-68
2023/07/15 02:03:34;;;;;;;3.00;1.40;;;;;;;24.94;56.86;99978.69;5037110;28;20052;-69
2023/07/15 02:06:03;;;;;;;6.70;1.60;;;;;;;24.82;57.62;99981.31;5084633;28;20044;-67
2023/07/15 02:08:32;;;;;;;3.35;1.42;;;;;;;24.88;57.31;99973.97;5080936;28;20044;-67
2023/07/15 02:10:59;;;;;;;6.03;1.30;;;;;;;24.56;58.63;99982.09;5056093;28;20551;-67
2023/07/15 02:13:26;;;;;;;3.30;1.23;;;;;;;24.40;59.55;99991.97;5070179;28;20056;-68
2023/07/15 02:15:54;;;;;;;3.05;1.20;;;;;;;24.38;59.74;99988.78;5086836;28;20048;-68
2023/07/15 02:18:25;;;;;;;6.10;1.17;;;;;;;24.40;59.52;99989.16;5071901;28;20051;-69
2023/07/15 02:20:52;;;;;;;3.35;1.20;;;;;;;24.66;59.25;99978.31;5047872;28;20060;-67
2023/07/15 02:23:20;;;;;;;3.80;1.35;;;;;;;24.35;60.87;99983.19;5082896;28;20052;-68
2023/07/15 02:25:48;;;;;;;3.30;1.17;;;;;;;24.40;60.70;99997.59;5084303;28;20044;-67
2023/07/15 02:28:15;;;;;;;4.60;1.23;;;;;;;24.46;60.72;100001.53;5079190;28;20087;-67
2023/07/15 02:30:42;;;;;;;3.35;1.35;;;;;;;24.57;60.42;100001.38;5088408;28;20051;-68
2023/07/15 02:33:10;;;;;;;4.25;1.40;;;;;;;24.70;60.07;99977.06;5048202;28;20160;-66
2023/07/15 02:35:41;;;;;;;3.45;1.17;;;;;;;24.70;60.43;99974.25;5086533;28;20157;-68
2023/07/15 02:38:09;;;;;;;6.68;1.90;;;;;;;24.67;60.86;99986.31;5091306;28;20052;-68
2023/07/15 02:40:36;;;;;;;5.28;1.15;;;;;;;24.57;61.15;100009.81;5110710;28;20044;-66
2023/07/15 02:43:03;;;;;;;5.07;1.35;;;;;;;24.50;61.52;100009.91;5090777;28;20514;-67
2023/07/15 02:45:32;;;;;;;4.93;1.30;;;;;;;24.35;62.12;100012.16;5067708;28;20067;-67
2023/07/15 02:48:00;;;;;;;5.50;1.48;;;;;;;24.53;61.42;100009.88;5109143;28;20070;-67
2023/07/15 02:50:27;;;;;;;4.38;1.73;;;;;;;24.62;61.23;100017.00;5105540;28;20076;-67
2023/07/15 02:52:55;;;;;;;6.85;1.33;;;;;;;24.58;61.33;100022.69;5092712;28;20052;-62
2023/07/15 02:55:22;;;;;;;4.25;1.15;;;;;;;24.47;61.75;100022.03;5093901;28;20541;-68
2023/07/15 02:57:50;;;;;;;5.20;1.10;;;;;;;24.51;61.52;100017.94;5108919;28;21677;-67
2023/07/15 03:00:18;;;;;;;5.05;1.27;;;;;;;24.56;61.57;100011.06;5091145;28;20043;-63
2023/07/15 03:02:49;;;;;;;6.57;1.40;;;;;;;24.44;62.07;100006.00;5094883;28;20047;-62
2023/07/15 03:05:16;;;;;;;2.83;1.15;;;;;;;24.55;61.41;100001.00;5113142;28;20047;-63
2023/07/15 03:07:46;;;;;;;7.72;1.40;;;;;;;24.38;62.64;99996.41;5085006;28;20048;-63
2023/07/15 03:10:14;;;;;;;2.73;1.30;;;;;;;24.33;62.77;99996.91;5089235;28;20059;-62
2023/07/15 03:12:45;;;;;;;2.83;1.25;;;;;;;24.40;62.66;100017.31;5088227;28;20523;-63
2023/07/15 03:15:15;;;;;;;4.38;1.30;;;;;;;24.42;62.74;100017.69;5071662;28;20044;-67
2023/07/15 03:17:43;;;;;;;5.13;1.60;;;;;;;24.16;64.48;100006.38;5113698;28;20371;-67
2023/07/15 03:20:19;;;;;;;3.65;1.38;;;;;;;24.22;64.38;100002.69;5093923;28;20043;-67
2023/07/15 03:22:49;;;;;;;5.15;1.40;;;;;;;24.33;64.09;100000.53;5100587;28;20046;-68
2023/07/15 03:25:19;;;;;;;9.70;1.70;;;;;;;24.24;64.65;99991.78;5091216;28;20044;-67
2023/07/15 03:27:48;;;;;;;7.13;1.30;;;;;;;24.12;65.31;99988.75;5092860;28;20055;-68
2023/07/15 03:30:16;;;;;;;5.95;1.80;;;;;;;24.16;64.97;99993.13;5104002;28;20058;-67
2023/07/15 03:32:45;;;;;;;5.47;1.40;;;;;;;24.35;64.96;100005.72;5113083;28;20578;-68
2023/07/15 03:35:15;;;;;;;5.47;1.30;;;;;;;24.50;64.07;100010.72;5113850;28;20102;-66
2023/07/15 03:37:44;;;;;;;3.67;1.15;;;;;;;24.36;64.51;100016.56;5092165;28;20059;-68
2023/07/15 03:40:12;;;;;;;10.40;1.40;;;;;;;24.44;64.60;100018.03;5073095;28;20056;-67
2023/07/15 03:42:41;;;;;;;5.65;1.60;;;;;;;24.45;64.71;100014.03;5077882;28;20046;-62
2023/07/15 03:45:09;;;;;;;3.17;1.13;;;;;;;24.40;65.26;100019.31;5094898;28;20055;-63
2023/07/15 03:47:37;;;;;;;4.05;1.05;;;;;;;24.27;65.33;100021.91;5107321;28;20474;-63
2023/07/15 03:50:09;;;;;;;4.78;1.42;;;;;;;24.28;65.41;100017.88;5108835;28;20065;-62
2023/07/15 03:52:37;;;;;;;6.35;1.40;;;;;;;24.03;66.21;100028.66;5110512;28;20486;-62
2023/07/15 03:55:05;;;;;;;4.20;1.40;;;;;;;24.17;66.27;100008.78;5077962;28;20047;-63
2023/07/15 03:57:33;;;;;;;3.85;1.65;;;;;;;24.22;66.01;99987.78;5094211;28;20364;-63
2023/07/15 04:00:00;;;;;;;8.95;1.27;;;;;;;24.13;66.62;99968.63;5113299;28;20051;-62
2023/07/15 04:02:39;;;;;;;3.78;1.00;;;;;;;24.24;66.05;99968.47;5103780;28;20043;-62
2023/07/15 04:05:07;;;;;;;4.63;1.48;;;;;;;24.21;65.77;99975.75;5111111;28;20054;-63
2023/07/15 04:07:34;;;;;;;4.22;1.60;;;;;;;24.17;65.82;99986.25;5112758;28;20040;-62
2023/07/15 04:10:02;;;;;;;6.57;1.45;;;;;;;24.16;66.38;100003.56;5111365;28;20636;-61
2023/07/15 04:12:29;;;;;;;4.22;1.30;;;;;;;24.09;66.37;100037.44;5112242;28;20035;-62
2023/07/15 04:14:57;;;;;;;5.82;1.35;;;;;;;24.26;65.65;100062.53;5114168;28;20052;-63
2023/07/15 04:17:24;;;;;;;5.47;1.27;;;;;;;24.31;65.53;100048.00;5108776;28;20052;-63
2023/07/15 04:19:51;;;;;;;5.63;1.52;;;;;;;24.23;65.93;100029.59;5096030;28;20066;-62
2023/07/15 04:22:19;;;;;;;6.00;1.35;;;;;;;24.11;66.80;100040.63;5109448;28;20040;-62
2023/07/15 04:24:46;;;;;;;5.35;1.50;;;;;;;23.97;66.81;100019.03;5111491;28;20047;-63
2023/07/15 04:27:14;;;;;;;3.90;1.33;;;;;;;23.81;67.60;99996.34;5104490;28;20055;-62
2023/07/15 04:29:41;;;;;;;5.05;1.30;;;;;;;23.84;67.91;99995.50;5087259;28;20155;-63
2023/07/15 04:32:08;;;;;;;7.07;1.45;;;;;;;23.77;68.80;100009.66;5108609;28;20059;-62
2023/07/15 04:34:36;;;;;;;4.30;1.38;;;;;;;23.93;68.49;99978.91;5110838;28;20070;-62
2023/07/15 04:37:03;;;;;;;5.72;1.70;;;;;;;23.93;68.34;99975.31;5110466;28;20138;-62
2023/07/15 04:39:31;;;;;;;5.90;1.52;;;;;;;23.76;69.14;99965.88;5076271;28;20052;-62
2023/07/15 04:41:58;;;;;;;4.70;1.10;;;;;;;23.72;69.19;99964.31;5111946;28;20048;-62
2023/07/15 04:44:26;;;;;;;4.35;1.38;;;;;;;23.83;68.64;99979.06;5093775;28;20032;-62
2023/07/15 04:46:53;;;;;;;4.88;1.35;;;;;;;23.57;69.43;99971.31;5111950;28;20078;-62
2023/07/15 04:49:20;;;;;;;6.78;1.13;;;;;;;23.75;68.80;99969.09;5090469;28;20062;-62
2023/07/15 04:51:48;;;;;;;6.75;1.48;;;;;;;23.86;68.36;99981.81;5105799;28;20044;-62
2023/07/15 04:54:15;;;;;;;5.18;1.23;;;;;;;23.66;68.46;99980.84;5095241;28;20043;-63
2023/07/15 04:56:42;;;;;;;6.85;1.20;;;;;;;23.63;68.99;99969.63;5109523;28;20048;-63
2023/07/15 04:59:11;;;;;;;8.40;1.45;;;;;;;23.56;69.56;99989.41;5107471;28;20349;-62
2023/07/15 05:01:38;;;;;;;6.57;1.63;;;;;;;23.64;70.51;99976.88;5087643;28;20050;-62
2023/07/15 05:04:05;;;;;;;5.43;1.40;;;;;;;23.63;71.15;99983.69;5110781;28;20035;-61
2023/07/15 05:06:33;;;;;;;6.80;1.85;;;;;;;23.38;72.53;100020.50;5108485;28;20569;-63
2023/07/15 05:09:00;;;;;;;6.53;1.40;;;;;;;23.54;72.90;99998.25;5087839;28;20047;-62
2023/07/15 05:11:28;;;;;;;3.45;1.38;;;;;;;23.39;73.23;99980.75;5109906;28;20055;-62
2023/07/15 05:13:56;;;;;;;6.70;1.58;;;;;;;23.39;72.50;99991.19;5092321;28;20067;-63
2023/07/15 05:16:24;;;;;;;7.30;1.70;;;;;;;23.50;72.67;99980.66;5108346;28;20048;-63
2023/07/15 05:18:52;;;;;;;4.25;1.20;;;;;;;23.56;72.08;99990.19;5112323;28;20487;-62
2023/07/15 05:21:19;;;;;;;5.25;1.35;;;;;;;23.48;73.10;99987.88;5079921;28;20043;-64
2023/07/15 05:23:46;;;;;;;6.07;1.50;;;;;;;23.36;72.79;99984.38;5083742;28;20059;-62
2023/07/15 05:26:14;;;;;;;6.25;1.33;;;;;;;23.26;73.83;99985.25;5083527;28;20048;-62
2023/07/15 05:28:41;;;;;;;5.93;1.67;;;;;;;23.42;72.64;99998.78;5105108;28;20046;-62
2023/07/15 05:31:09;;;;;;;9.93;2.05;;;;;;;23.48;72.97;100013.19;5111633;28;20121;-62
2023/07/15 05:33:36;;;;;;;5.80;1.70;;;;;;;23.46;72.41;100002.38;5080741;28;20519;-63
2023/07/15 05:36:04;;;;;;;5.07;1.50;;;;;;;23.35;73.01;100010.09;5064776;28;20047;-63
2023/07/15 05:38:41;;;;;;;3.92;1.23;;;;;;;23.27;73.30;100026.22;5090883;28;20070;-62
2023/07/15 05:41:09;;;;;;;6.25;1.70;;;;;;;23.54;72.61;100036.84;5090989;28;20056;-63
2023/07/15 05:43:37;;;;;;;8.13;1.75;;;;;;;23.46;72.55;100044.53;5082619;28;20119;-63
2023/07/15 05:46:04;;;;;;;6.88;1.60;;;;;;;23.50;72.63;100027.63;5045573;28;20053;-63
2023/07/15 05:48:32;;;;;;;6.03;1.33;;;;;;;23.44;72.01;100024.47;5084799;28;20059;-63
2023/07/15 05:50:59;;;;;;;5.40;1.70;;;;;;;23.40;71.92;100052.63;5083711;28;20074;-62
2023/07/15 05:53:27;;;;;;;8.13;1.88;;;;;;;23.38;71.60;100057.03;5091172;28;20040;-62
2023/07/15 05:55:54;;;;;;;5.97;1.85;;;;;;;23.21;72.62;100063.59;5081728;28;20055;-63
2023/07/15 05:58:23;;;;;;;8.82;2.30;;;;;;;23.20;72.37;100051.56;5090126;28;20039;-62
2023/07/15 06:00:51;;;;;;;6.40;1.50;;;;;;;23.39;71.72;100067.09;5082104;28;20055;-62
2023/07/15 06:03:18;;;;;;;7.22;1.83;;;;;;;23.12;72.58;100058.44;5071346;28;20059;-62
2023/07/15 06:05:46;;;;;;;6.05;1.95;;;;;;;23.08;72.31;100066.09;5068792;28;20052;-62
2023/07/15 06:08:13;;;;;;;4.35;1.77;;;;;;;22.93;71.89;100067.41;5085819;28;20055;-62
2023/07/15 06:10:42;;;;;;;8.30;2.00;;;;;;;22.73;71.36;100063.56;5085969;28;20063;-62
2023/07/15 06:13:10;;;;;;;8.77;2.28;;;;;;;22.82;70.98;100083.53;5084353;28;20048;-62
2023/07/15 06:15:38;;;;;;;8.65;2.47;;;;;;;22.87;70.64;100085.13;5071809;28;20059;-62
2023/07/15 06:18:06;;;;;;;7.95;2.13;;;;;;;22.97;70.66;100101.09;5081033;28;20052;-63
2023/07/15 06:20:38;;;;;;;12.02;2.35;;;;;;;23.29;68.98;100094.06;5090036;28;20498;-64
2023/07/15 06:23:05;;;;;;;9.88;2.63;;;;;;;23.23;69.11;100084.47;5073062;28;20051;-62
2023/07/15 06:25:33;;;;;;;10.38;1.80;;;;;;;23.22;70.02;100079.25;5077744;28;20051;-63
2023/07/15 06:28:01;;;;;;;10.05;2.15;;;;;;;23.14;70.33;100078.50;5087378;28;20527;-68
2023/07/15 06:30:28;;;;;;;7.00;2.67;;;;;;;23.18;70.26;100103.75;5086257;28;20044;-68
2023/07/15 06:32:55;;;;;;;7.13;2.55;;;;;;;23.24;70.48;100096.50;5093343;28;20416;-68
2023/07/15 06:35:23;;;;;;;7.03;2.30;;;;;;;23.37;69.88;100092.00;5073361;28;20048;-69
2023/07/15 06:37:50;;;;;;;8.23;2.20;;;;;;;23.28;69.21;100102.91;5074710;28;20047;-69
2023/07/15 06:40:18;;;;;;;9.40;2.60;;;;;;;23.42;68.08;100109.22;5078281;28;20067;-67
2023/07/15 06:42:46;;;;;;;5.40;2.05;;;;;;;23.44;66.50;100108.81;5013864;28;20049;-68
2023/07/15 06:45:13;;;;;;;7.05;2.03;;;;;;;23.41;66.63;100112.44;5104471;28;20062;-68
2023/07/15 06:47:41;;;;;;;9.52;2.55;;;;;;;23.26;66.02;100105.28;5013846;28;20049;-68
2023/07/15 06:50:08;;;;;;;6.70;2.05;;;;;;;23.37;65.04;100111.66;5113395;28;20056;-67
2023/07/15 06:52:36;;;;;;;6.97;2.42;;;;;;;23.25;65.32;100104.53;5113912;28;20039;-69
2023/07/15 06:55:03;;;;;;;7.47;2.38;;;;;;;23.22;65.36;100116.56;5020590;28;20049;-68
2023/07/15 06:57:31;;;;;;;8.18;2.13;;;;;;;23.21;64.80;100108.56;5018225;28;20054;-67
2023/07/15 06:59:59;;;;;;;5.90;1.98;;;;;;;23.04;65.32;100121.53;5093156;28;20047;-68
2023/07/15 07:02:26;;;;;;;8.35;2.35;;;;;;;23.20;65.31;100106.97;5101614;28;20495;-68
2023/07/15 07:04:54;;;;;;;8.88;2.20;;;;;;;23.46;64.92;100103.56;5109911;28;20032;-68
2023/07/15 07:07:23;;;;;;;7.97;2.17;;;;;;;23.54;64.69;100119.16;5109506;28;20043;-68
2023/07/15 07:09:50;;;;;;;5.85;1.98;;;;;;;23.52;65.09;100113.13;5112820;28;20549;-68
2023/07/15 07:12:18;;;;;;;6.68;2.10;;;;;;;23.49;65.86;100107.53;5009734;28;20061;-67
2023/07/15 07:14:45;;;;;;;9.57;2.88;;;;;;;23.52;66.70;100113.13;5110968;28;20043;-68
2023/07/15 07:17:13;;;;;;;10.43;2.63;;;;;;;23.26;68.33;100119.34;5111066;28;20051;-68
2023/07/15 07:19:41;;;;;;;8.98;2.85;;;;;;;23.02;69.39;100126.75;5112896;28;20043;-68
2023/07/15 07:22:09;;;;;;;7.35;2.30;;;;;;;23.11;68.86;100129.09;5012384;28;20413;-68
2023/07/15 07:24:36;;;;;;;10.00;2.55;;;;;;;23.24;69.08;100127.41;5112522;28;20756;-68
2023/07/15 07:27:04;;;;;;;9.60;2.78;;;;;;;23.08;68.86;100113.09;5089473;28;20047;-68
2023/07/15 07:29:31;;;;;;;6.95;2.50;;;;;;;23.02;68.98;100131.56;5112183;28;20439;-68
2023/07/15 07:31:58;;;;;;;5.95;2.33;;;;;;;22.97;69.22;100143.25;5114463;28;20570;-68
2023/07/15 07:34:26;;;;;;;7.15;2.13;;;;;;;22.97;68.65;100143.25;5110743;28;20047;-68
2023/07/15 07:36:53;;;;;;;5.47;2.50;;;;;;;23.08;68.38;100161.63;5089144;28;20055;-68
2023/07/15 07:39:21;;;;;;;9.18;2.35;;;;;;;23.16;67.35;100146.34;5113185;28;20066;-68
2023/07/15 07:41:49;;;;;;;5.82;2.20;;;;;;;22.95;67.78;100157.69;5113815;28;20056;-68
2023/07/15 07:44:16;;;;;;;9.23;2.28;;;;;;;22.87;67.49;100152.53;5113035;28;20044;-68
2023/07/15 07:46:44;;;;;;;9.07;2.50;;;;;;;22.99;67.37;100154.88;5112820;28;20513;-69
2023/07/15 07:49:12;;;;;;;5.57;1.90;;;;;;;22.92;65.93;100163.34;5094490;28;20173;-69
2023/07/15 07:51:40;;;;;;;9.43;2.33;;;;;;;22.87;65.84;100160.97;5096597;28;20051;-68
2023/07/15 07:54:08;;;;;;;5.35;2.03;;;;;;;22.95;66.25;100156.91;5104994;28;20047;-68
2023/07/15 07:56:35;;;;;;;6.43;1.83;;;;;;;23.23;64.83;100159.53;5111612;28;20052;-63
2023/07/15 07:59:03;;;;;;;8.10;1.95;;;;;;;23.43;62.86;100143.75;5090036;28;20055;-62
2023/07/15 08:01:31;;;;;;;4.20;1.83;;;;;;;23.22;63.59;100161.53;5092646;28;20044;-62
2023/07/15 08:03:59;;;;;;;6.10;1.67;;;;;;;23.30;63.73;100163.13;5111948;28;20043;-61
2023/07/15 08:06:27;;;;;;;9.57;4.43;;;;;;;23.31;63.55;100164.72;5106739;28;20054;-63
2023/07/15 08:08:54;;;;;;;8.05;2.58;;;;;;;23.50;62.87;100156.97;5109233;28;20040;-63
2023/07/15 08:11:22;;;;;;;7.43;1.80;;;;;;;23.57;62.97;100157.72;5105661;28;20048;-62
2023/07/15 08:13:49;;;;;;;12.40;2.03;;;;;;;23.94;60.45;100152.13;5104271;28;20502;-61
2023/07/15 08:16:37;;;;;;;5.88;1.95;;;;;;;24.10;60.95;100163.66;5101108;28;20074;-62
2023/07/15 08:19:06;;;;;;;6.63;2.15;;;;;;;24.01;61.28;100159.72;5109122;28;20055;-60
2023/07/15 08:21:33;;;;;;;6.63;1.85;;;;;;;24.13;60.71;100162.03;5109778;28;20056;-60
2023/07/15 08:24:01;;;;;;;8.10;2.25;;;;;;;24.19;60.53;100161.13;5086987;28;20044;-61
2023/07/15 08:26:28;;;;;;;4.95;1.70;;;;;;;24.25;59.88;100167.91;5110010;28;20051;-61
2023/07/15 08:28:58;;;;;;;6.65;2.00;;;;;;;24.49;58.21;100160.41;5108481;28;20635;-62
2023/07/15 08:31:25;;;;;;;9.57;1.90;;;;;;;24.38;58.03;100156.91;5105526;28;20048;-61
2023/07/15 08:33:54;;;;;;;8.32;2.10;;;;;;;24.50;57.49;100162.78;5110113;28;20048;-61
2023/07/15 08:36:22;;;;;;;7.13;2.22;;;;;;;24.61;57.44;100161.84;5085985;28;20044;-61
2023/07/15 08:38:50;;;;;;;6.80;1.85;;;;;;;24.37;57.66;100160.94;5107808;28;20148;-61
2023/07/15 08:41:18;;;;;;;6.75;1.65;;;;;;;24.02;59.06;100161.31;5099856;28;20059;-60
2023/07/15 08:43:46;;;;;;;4.78;1.80;;;;;;;24.40;57.83;100160.91;5090062;28;20426;-60
2023/07/15 08:46:23;;;;;;;6.85;1.73;;;;;;;24.62;57.67;100152.97;5105538;28;20048;-60
2023/07/15 08:48:51;;;;;;;7.07;2.20;;;;;;;24.88;56.85;100159.94;5110616;28;20047;-60
2023/07/15 08:51:36;;;;;;;5.05;1.55;;;;;;;24.76;57.54;100154.88;5104580;27;20063;-60
2023/07/15 08:54:06;;;;;;;6.60;2.28;;;;;;;24.76;57.36;100155.63;5088028;28;20054;-62
2023/07/15 08:56:37;;;;;;;8.52;2.20;;;;;;;24.72;57.58;100157.72;5107059;28;20506;-60
2023/07/15 08:59:06;;;;;;;8.75;2.35;;;;;;;24.62;57.69;100155.78;5085932;28;20055;-60
2023/07/15 09:01:35;;;;;;;9.70;2.47;;;;;;;24.79;56.35;100152.00;5110164;28;20052;-60
2023/07/15 09:04:02;;;;;;;8.23;2.10;;;;;;;24.83;56.29;100149.09;5105544;28;20044;-61
2023/07/15 09:06:30;;;;;;;8.82;2.10;;;;;;;24.71;56.17;100150.47;5109936;28;20779;-60
2023/07/15 09:08:57;;;;;;;8.35;2.42;;;;;;;24.89;55.69;100153.88;5109867;28;20043;-59
2023/07/15 09:11:25;;;;;;;6.25;1.98;;;;;;;24.81;55.04;100151.56;5113397;28;20046;-60
2023/07/15 09:13:54;;;;;;;8.80;2.17;;;;;;;24.64;54.99;100153.34;5094534;28;20054;-60
2023/07/15 09:16:21;;;;;;;8.20;2.15;;;;;;;24.60;55.11;100163.09;5112971;28;20035;-60
2023/07/15 09:18:48;;;;;;;8.65;2.40;;;;;;;24.39;55.62;100164.16;5112698;28;20055;-61
2023/07/15 09:21:16;;;;;;;6.38;2.10;;;;;;;24.64;55.43;100172.25;5077097;28;20477;-61
2023/07/15 09:23:45;;;;;;;6.10;1.92;;;;;;;24.31;55.40;100162.59;5112153;28;20056;-61
2023/07/15 09:26:12;;;;;;;8.35;1.90;;;;;;;24.06;56.42;100174.13;5112645;28;20032;-61
2023/07/15 09:28:41;;;;;;;6.15;2.03;;;;;;;24.00;56.56;100167.38;5112974;28;20391;-60
2023/07/15 09:31:08;;;;;;;9.45;2.25;;;;;;;24.06;57.20;100164.91;5112476;28;20061;-62
2023/07/15 09:33:40;;;;;;;8.00;2.08;;;;;;;24.34;55.97;100159.75;5112201;28;20058;-60
2023/07/15 09:36:07;;;;;;;9.00;2.20;;;;;;;24.38;55.60;100168.97;5105520;28;20043;-60
2023/07/15 09:38:36;;;;;;;14.30;2.90;;;;;;;24.70;54.74;100162.97;5109133;28;20062;-61
2023/07/15 09:41:08;;;;;;;6.35;2.00;;;;;;;24.79;54.14;100152.00;5113082;28;20058;-61
2023/07/15 09:43:51;;;;;;;6.00;2.20;;;;;;;24.80;54.17;100161.22;5108068;28;20451;-61
2023/07/15 09:46:21;;;;;;;8.43;2.25;;;;;;;25.05;53.62;100159.69;5110373;28;20042;-61
2023/07/15 09:48:50;;;;;;;13.20;2.20;;;;;;;25.35;53.07;100156.00;5109177;28;20078;-60
2023/07/15 09:51:18;;;;;;;13.13;2.85;;;;;;;25.07;54.15;100164.88;5099951;28;20523;-60
2023/07/15 09:53:51;;;;;;;6.95;2.28;;;;;;;24.85;54.46;100164.38;5106491;28;21308;-62
2023/07/15 09:56:29;;;;;;;12.15;2.63;;;;;;;24.68;55.68;100162.56;5104139;28;20047;-62
2023/07/15 09:59:28;;;;;;;26.90;4.22;;;;;;;25.18;55.03;100162.69;5088740;28;20043;-60
2023/07/15 10:02:05;;;;;;;12.35;3.70;;;;;;;25.45;54.26;100163.53;5106386;27;20059;-61
2023/07/15 10:04:35;;;;;;;16.63;3.03;;;;;;;25.32;54.78;100170.94;5085949;28;20059;-60
2023/07/15 10:07:03;;;;;;;10.05;2.72;;;;;;;25.43;54.96;100168.78;5106948;28;20047;-61
2023/07/15 10:09:34;;;;;;;11.02;2.55;;;;;;;25.58;54.08;100173.78;5089083;28;20064;-61
2023/07/15 10:12:02;;;;;;;11.55;2.35;;;;;;;25.60;54.26;100170.53;5105090;28;20039;-62
2023/07/15 10:14:31;;;;;;;12.00;2.95;;;;;;;25.68;54.60;100177.66;5109527;28;20050;-61
2023/07/15 10:17:11;;;;;;;10.60;2.92;;;;;;;25.59;54.56;100180.22;5069283;28;20048;-61
2023/07/15 10:19:41;;;;;;;;;;;;;;;25.59;54.16;100169.72;5090610;28;20047;-59
2023/07/15 10:22:12;;;;;;;8.70;2.53;;;;;;;25.57;52.65;100151.63;5089343;28;19927;-62
2023/07/15 10:24:42;;;;;;;12.23;2.30;;;;;;;25.10;53.42;100141.47;5106235;28;20058;-62
2023/07/15 10:27:11;;;;;;;8.70;2.43;;;;;;;25.40;52.89;100108.38;5087066;28;20052;-63
2023/07/15 10:29:39;;;;;;;15.82;3.08;;;;;;;25.44;53.18;100095.03;5103202;28;20678;-62
2023/07/15 10:32:14;;;;;;;8.95;2.38;;;;;;;25.70;51.94;100095.41;5105172;28;20044;-60
2023/07/15 10:34:51;;;;;;;12.18;2.63;;;;;;;25.89;51.95;100103.13;5105759;28;20063;-60
2023/07/15 10:37:19;;;;;;;14.98;2.72;;;;;;;25.99;49.73;100122.66;5101931;28;20220;-61
2023/07/15 10:39:47;;;;;;;14.35;2.45;;;;;;;26.14;49.61;100132.47;5107797;28;20048;-61
2023/07/15 10:42:18;;;;;;;9.88;2.70;;;;;;;26.15;49.84;100130.47;5061312;28;20040;-61
2023/07/15 10:44:52;;;;;;;8.00;2.08;;;;;;;26.56;49.40;100137.28;5107410;28;20437;-61
2023/07/15 10:47:20;;;;;;;11.73;2.30;;;;;;;26.34;49.51;100132.50;5099007;28;20055;-61
2023/07/15 10:49:48;;;;;;;9.98;2.40;;;;;;;26.28;49.62;100140.69;5077200;28;20048;-60
2023/07/15 10:52:21;;;;;;;12.88;2.50;;;;;;;26.09;50.20;100133.00;5103658;28;20059;-61
2023/07/15 10:54:48;;;;;;;10.07;2.85;;;;;;;26.04;49.91;100130.66;5107137;28;20070;-61
2023/07/15 10:57:16;;;;;;;7.28;2.50;;;;;;;26.09;49.83;100121.69;5088419;28;20056;-61
2023/07/15 10:59:45;;;;;;;7.68;2.55;;;;;;;26.12;49.88;100117.19;5088288;28;20055;-61
2023/07/15 11:02:13;;;;;;;7.43;2.77;;;;;;;26.29;49.65;100122.50;5104981;28;20059;-61
2023/07/15 11:04:40;;;;;;;11.48;2.60;;;;;;;26.30;49.63;100124.09;5108002;28;20055;-67
2023/07/15 11:07:10;;;;;;;10.10;2.63;;;;;;;26.59;48.91;100132.75;5104652;28;20059;-60
2023/07/15 11:09:38;;;;;;;;;;;;;;;26.42;48.84;100128.28;5104935;28;20181;-61
2023/07/15 11:12:08;;;;;;;10.68;2.28;;;;;;;26.29;48.85;100122.50;5106618;27;19919;-60
2023/07/15 11:14:44;;;;;;;12.10;2.90;;;;;;;26.27;49.57;100118.53;5112542;27;20048;-60
2023/07/15 11:17:14;;;;;;;17.75;3.28;;;;;;;26.47;48.93;100114.47;5092754;28;20494;-61
2023/07/15 11:19:45;;;;;;;8.10;2.83;;;;;;;26.48;49.01;100120.91;5113295;27;20051;-60
2023/07/15 11:22:13;;;;;;;9.15;2.85;;;;;;;26.53;49.28;100120.41;5092759;28;20047;-61
2023/07/15 11:24:41;;;;;;;14.80;4.75;;;;;;;26.51;48.95;100115.19;5111858;28;20051;-61
2023/07/15 11:27:08;;;;;;;9.43;2.78;;;;;;;26.44;49.10;100111.72;5112045;27;20051;-61
2023/07/15 11:29:36;;;;;;;8.45;2.47;;;;;;;26.53;49.34;100112.72;5111899;28;20371;-60
2023/07/15 11:32:04;;;;;;;8.55;2.28;;;;;;;26.59;48.88;100113.78;5113298;27;20059;-61
2023/07/15 11:34:31;;;;;;;10.32;2.50;;;;;;;26.41;49.63;100140.84;5111233;27;20046;-61